9ha2459 — 9HA2459 — position and weather

sailwx.info

Track history (hours):
 
Tides and Currents Weather Stations Pressure Air Temp Water Temp Dewpoint Dewpoint Depression Visibility Wind Speed Wind Dir Waves Ship Positions

9ha2459

Last reported at 2017-Jun-26 18:24 UTC. Time now 2017-Jun-26 18:47 UTC.
Position N 38°46' E 001°26'.

Length 50 m; draft 4.9 m.

Type: Pleasure craft. MMSI: 248663000.

Date/timePositionNaut miles runAvg speedWind from/ knotsBaromVisibWave heightAir tempDewpointWater temp
2017-Jun-26 18:24N 38°46' E 001°26'0 0.0
2017-Jun-26 17:12N 38°46' E 001°26'0 0.1
2017-Jun-26 16:57N 38°46' E 001°26'0 0.0
2017-Jun-26 16:27N 38°46' E 001°26'0 0.0
2017-Jun-26 15:51N 38°46' E 001°26'0 0.0
2017-Jun-26 15:30N 38°46' E 001°26'0 0.0
2017-Jun-26 14:57N 38°46' E 001°26'0 0.0
2017-Jun-26 13:26N 38°46' E 001°26'0 0.0
2017-Jun-26 11:30N 38°46' E 001°26'0 0.0
2017-Jun-26 07:36N 38°46' E 001°26'8 1.3
2017-Jun-26 01:37N 38°52' E 001°19'0 0.1
2017-Jun-26 01:25N 38°52' E 001°19'0 0.0
2017-Jun-25 21:13N 38°52' E 001°19'0 0.0
2017-Jun-25 20:49N 38°52' E 001°19'0 0.0
2017-Jun-25 20:25N 38°52' E 001°19'0 0.0
2017-Jun-25 07:06N 38°52' E 001°19'1 6.4
2017-Jun-25 07:00N 38°51' E 001°19'510.2
2017-Jun-25 06:30N 38°48' E 001°24'3 4.5
2017-Jun-25 05:57N 38°46' E 001°26'0 0.0
2017-Jun-25 05:30N 38°46' E 001°26'0 0.0
2017-Jun-25 05:00N 38°46' E 001°26'0 0.0
2017-Jun-25 03:21N 38°46' E 001°26'0 0.0
2017-Jun-25 02:51N 38°46' E 001°26'0 0.0
2017-Jun-25 02:30N 38°46' E 001°26'0 0.0
2017-Jun-25 02:00N 38°46' E 001°26'0 0.0
2017-Jun-25 01:30N 38°46' E 001°26'0 0.0
2017-Jun-25 01:00N 38°46' E 001°26'0 0.0
2017-Jun-25 00:30N 38°46' E 001°26'0 0.0
2017-Jun-25 00:00N 38°46' E 001°26'0 0.0
2017-Jun-24 23:24N 38°46' E 001°26'0 0.0
2017-Jun-24 22:57N 38°46' E 001°26'0 0.0
2017-Jun-24 22:21N 38°46' E 001°26'0 0.0
2017-Jun-24 22:00N 38°46' E 001°26'0 0.0
2017-Jun-24 21:24N 38°46' E 001°26'0 0.0
2017-Jun-24 20:57N 38°46' E 001°26'0 0.0
2017-Jun-24 20:15N 38°46' E 001°26'0 0.0
2017-Jun-24 19:57N 38°46' E 001°26'0 0.0
2017-Jun-24 19:27N 38°46' E 001°26'0 0.0
2017-Jun-24 19:00N 38°46' E 001°26'0 0.0
2017-Jun-24 18:27N 38°46' E 001°26'0 0.0
2017-Jun-24 18:00N 38°46' E 001°26'0 0.0
2017-Jun-24 17:27N 38°46' E 001°26'0 0.0
2017-Jun-24 16:57N 38°46' E 001°26'0 0.0
2017-Jun-24 16:30N 38°46' E 001°26'0 0.0
2017-Jun-24 16:00N 38°46' E 001°26'0 0.0
2017-Jun-24 15:30N 38°46' E 001°26'0 0.0
2017-Jun-24 15:00N 38°46' E 001°26'0 0.0
2017-Jun-24 14:00N 38°46' E 001°26'0 0.0
2017-Jun-24 13:30N 38°46' E 001°26'0 0.0
2017-Jun-24 13:01N 38°46' E 001°26'0 0.0
2017-Jun-24 12:30N 38°46' E 001°26'0 0.1
2017-Jun-24 12:00N 38°46' E 001°26'0 0.0
2017-Jun-24 11:30N 38°46' E 001°26'0 0.1
2017-Jun-24 10:59N 38°46' E 001°26'0 0.0
2017-Jun-24 10:30N 38°46' E 001°26'0 0.0
2017-Jun-24 10:00N 38°46' E 001°26'0 0.1
2017-Jun-24 09:30N 38°46' E 001°26'0 0.0
2017-Jun-24 09:00N 38°46' E 001°26'0 0.0
2017-Jun-24 08:30N 38°46' E 001°26'0 0.0
2017-Jun-24 08:00N 38°46' E 001°26'0 0.1
2017-Jun-24 07:30N 38°46' E 001°26'3 5.7
2017-Jun-24 07:00N 38°48' E 001°23'5 4.8
2017-Jun-24 05:54N 38°52' E 001°19'0 0.0
2017-Jun-24 01:06N 38°52' E 001°19'0 0.1
2017-Jun-24 01:00N 38°52' E 001°19'0 0.0
2017-Jun-24 00:24N 38°52' E 001°19'0 0.0
2017-Jun-23 23:48N 38°52' E 001°19'0 0.0
2017-Jun-23 23:30N 38°52' E 001°19'0 0.0
2017-Jun-23 22:48N 38°52' E 001°19'0 0.0
2017-Jun-23 22:24N 38°52' E 001°19'0 0.0
2017-Jun-23 21:00N 38°52' E 001°19'0 0.0
2017-Jun-23 20:30N 38°52' E 001°19'0 0.0
2017-Jun-23 19:48N 38°52' E 001°19'0 0.0
2017-Jun-23 19:30N 38°52' E 001°19'0 0.0
2017-Jun-23 19:00N 38°52' E 001°19'0 0.0
2017-Jun-23 18:12N 38°52' E 001°19'0 0.0
2017-Jun-23 17:48N 38°52' E 001°19'0 0.0
2017-Jun-23 17:30N 38°52' E 001°19'0 0.0
2017-Jun-23 13:00N 38°52' E 001°19'0 0.0
2017-Jun-23 10:30N 38°52' E 001°19'0 0.0
2017-Jun-23 10:00N 38°52' E 001°19'0 0.0
2017-Jun-23 09:30N 38°52' E 001°19'0 0.0
2017-Jun-23 09:00N 38°52' E 001°19'0 0.0
2017-Jun-23 00:00N 38°52' E 001°19'0 0.0
2017-Jun-22 23:24N 38°52' E 001°19'0 0.0
2017-Jun-22 23:00N 38°52' E 001°19'0 0.0
2017-Jun-22 21:24N 38°52' E 001°19'0 0.0
2017-Jun-22 21:00N 38°52' E 001°19'0 0.0
2017-Jun-22 20:30N 38°52' E 001°19'0 0.0
2017-Jun-22 19:42N 38°52' E 001°19'0 0.0
2017-Jun-22 19:30N 38°52' E 001°19'0 0.0
2017-Jun-22 18:48N 38°52' E 001°19'0 0.0
2017-Jun-22 18:30N 38°52' E 001°19'0 0.0
2017-Jun-22 17:30N 38°52' E 001°19'0 0.0
2017-Jun-22 16:48N 38°52' E 001°19'0 0.0
2017-Jun-22 16:24N 38°52' E 001°19'0 0.0
2017-Jun-22 16:00N 38°52' E 001°19'0 0.0
2017-Jun-22 15:24N 38°52' E 001°19'0 0.0
2017-Jun-22 14:54N 38°52' E 001°19'0 0.0
2017-Jun-22 14:30N 38°52' E 001°19'0 0.0
2017-Jun-22 13:29N 38°52' E 001°19'0 0.0
2017-Jun-22 12:59N 38°52' E 001°19'0 0.0
2017-Jun-22 12:29N 38°52' E 001°19'1 1.9
2017-Jun-22 11:55N 38°52' E 001°18'0 0.1
2017-Jun-22 10:27N 38°52' E 001°18'1 0.9
2017-Jun-22 09:11N 38°52' E 001°19'0 0.1
2017-Jun-22 08:59N 38°52' E 001°19'0 0.0
2017-Jun-22 08:29N 38°52' E 001°19'0 0.1
2017-Jun-22 07:41N 38°52' E 001°19'0 0.0
2017-Jun-22 06:41N 38°52' E 001°19'0 0.0
2017-Jun-22 06:29N 38°52' E 001°19'0 0.0
2017-Jun-22 05:59N 38°52' E 001°19'0 0.0
2017-Jun-22 05:29N 38°52' E 001°19'0 0.0
2017-Jun-22 04:59N 38°52' E 001°19'0 0.0
2017-Jun-22 04:29N 38°52' E 001°19'0 0.0
2017-Jun-22 03:59N 38°52' E 001°19'0 0.0
2017-Jun-22 03:17N 38°52' E 001°19'0 0.0
2017-Jun-22 02:59N 38°52' E 001°19'0 0.0
2017-Jun-22 02:29N 38°52' E 001°19'0 0.0
2017-Jun-22 00:53N 38°52' E 001°19'0 0.0
2017-Jun-21 20:44N 38°52' E 001°19'0 0.1
2017-Jun-21 20:29N 38°52' E 001°19'0 0.0
2017-Jun-21 15:58N 38°52' E 001°19'0 0.0
2017-Jun-21 15:16N 38°52' E 001°19'0 0.0
2017-Jun-21 05:51N 38°52' E 001°19'0 0.0
2017-Jun-21 05:27N 38°52' E 001°19'0 0.0
2017-Jun-21 04:57N 38°52' E 001°19'0 0.0
2017-Jun-21 04:30N 38°52' E 001°19'0 0.1
2017-Jun-21 03:59N 38°52' E 001°19'0 0.0
2017-Jun-21 03:28N 38°52' E 001°19'0 0.0
2017-Jun-21 03:00N 38°52' E 001°19'0 0.0
2017-Jun-21 02:21N 38°52' E 001°19'0 0.0
2017-Jun-21 01:48N 38°52' E 001°19'0 0.0
2017-Jun-21 01:15N 38°52' E 001°19'0 0.0
2017-Jun-21 00:51N 38°52' E 001°19'0 0.0
2017-Jun-21 00:27N 38°52' E 001°19'0 0.0
2017-Jun-21 00:00N 38°52' E 001°19'0 0.0
2017-Jun-20 23:30N 38°52' E 001°19'0 0.0
2017-Jun-20 23:00N 38°52' E 001°19'0 0.0
2017-Jun-20 22:30N 38°52' E 001°19'0 0.0
2017-Jun-20 22:00N 38°52' E 001°19'0 0.0
2017-Jun-20 21:20N 38°52' E 001°19'0 0.0
2017-Jun-20 20:57N 38°52' E 001°19'0 0.0
2017-Jun-20 20:31N 38°52' E 001°19'0 0.0
2017-Jun-20 20:00N 38°52' E 001°19'0 0.1
2017-Jun-20 19:30N 38°52' E 001°19'0 0.0
2017-Jun-20 19:00N 38°52' E 001°19'0 0.0
2017-Jun-20 18:30N 38°52' E 001°19'0 0.0
2017-Jun-20 18:00N 38°52' E 001°19'0 0.0
2017-Jun-20 17:30N 38°52' E 001°19'0 0.0
2017-Jun-20 16:59N 38°52' E 001°19'0 0.0
2017-Jun-20 16:30N 38°52' E 001°19'0 0.0
2017-Jun-20 16:00N 38°52' E 001°19'2 4.3
2017-Jun-20 15:30N 38°50' E 001°20'510.2
2017-Jun-20 15:00N 38°50' E 001°27'611.4
2017-Jun-20 14:30N 38°54' E 001°32'1010.0
2017-Jun-20 13:30N 39°02' E 001°38'3 5.7
2017-Jun-20 13:00N 39°03' E 001°42'510.6
2017-Jun-20 12:30N 39°07' E 001°46'510.4
2017-Jun-20 12:00N 39°11' E 001°50'510.5
2017-Jun-20 11:31N 39°15' E 001°54'510.5
2017-Jun-20 11:01N 39°19' E 001°58'510.8
2017-Jun-20 10:30N 39°24' E 002°02'510.4
2017-Jun-20 10:01N 39°28' E 002°06'510.3
2017-Jun-20 09:30N 39°32' E 002°10'510.0
2017-Jun-20 09:00N 39°36' E 002°15'510.3
2017-Jun-20 08:30N 39°39' E 002°19'611.2
2017-Jun-20 08:00N 39°43' E 002°24'510.8
2017-Jun-20 07:30N 39°47' E 002°29'511.0
2017-Jun-20 07:01N 39°51' E 002°34'611.1
2017-Jun-20 06:30N 39°55' E 002°39'611.1
2017-Jun-20 06:00N 39°59' E 002°45'511.0
2017-Jun-20 05:30N 40°02' E 002°50'611.1
2017-Jun-20 05:00N 40°06' E 002°55'510.9
2017-Jun-20 04:30N 40°10' E 003°01'610.8
2017-Jun-20 03:59N 40°13' E 003°06'510.6
2017-Jun-20 03:30N 40°17' E 003°11'710.4
2017-Jun-20 02:52N 40°21' E 003°18'410.1
2017-Jun-20 02:31N 40°24' E 003°21'2010.2
2017-Jun-20 00:35N 40°37' E 003°40'210.3
2017-Jun-20 00:25N 40°39' E 003°41'1810.3
2017-Jun-19 22:38N 40°51' E 003°59'1410.2
2017-Jun-19 21:14N 41°01' E 004°13'610.3
2017-Jun-19 20:38N 41°06' E 004°18'2010.2
2017-Jun-19 18:38N 41°20' E 004°37'36 9.0
2017-Jun-19 14:39N 41°45' E 005°12'1 0.5
2017-Jun-19 13:30N 41°45' E 005°13'8 9.7
2017-Jun-19 12:39N 41°51' E 005°20'19 9.7
2017-Jun-19 10:40N 42°05' E 005°39'1910.1
2017-Jun-19 08:46N 42°18' E 005°58'8 4.0
2017-Jun-19 06:40N 42°23' E 006°07'15 8.3
2017-Jun-19 04:50N 42°33' E 006°22'310.9
2017-Jun-19 04:30N 42°36' E 006°25'611.3
2017-Jun-19 04:00N 42°40' E 006°31'611.5
2017-Jun-19 03:30N 42°43' E 006°37'611.5
2017-Jun-19 03:00N 42°47' E 006°42'611.7
2017-Jun-19 02:30N 42°51' E 006°48'611.8
2017-Jun-19 01:59N 42°55' E 006°55'611.8
2017-Jun-19 01:30N 42°59' E 007°00'611.7
2017-Jun-19 01:00N 43°03' E 007°07'611.6
2017-Jun-19 00:30N 43°07' E 007°12'611.7
2017-Jun-19 00:00N 43°11' E 007°18'2511.6
2017-Jun-18 21:53N 43°28' E 007°42'411.8
2017-Jun-18 21:30N 43°32' E 007°46'611.8
2017-Jun-18 21:00N 43°36' E 007°52'611.8
2017-Jun-18 20:30N 43°40' E 007°58'611.9
2017-Jun-18 20:00N 43°44' E 008°04'611.8
2017-Jun-18 19:30N 43°49' E 008°09'611.5
2017-Jun-18 19:00N 43°53' E 008°15'611.2
2017-Jun-18 18:30N 43°56' E 008°21'510.8
2017-Jun-18 18:00N 44°00' E 008°26'510.7
2017-Jun-18 17:30N 44°04' E 008°31'510.6
2017-Jun-18 17:00N 44°07' E 008°37'510.0
2017-Jun-18 16:30N 44°10' E 008°42'510.0
2017-Jun-18 16:00N 44°13' E 008°48'510.1
2017-Jun-18 15:30N 44°16' E 008°53'5 9.8
2017-Jun-18 15:00N 44°20' E 008°58'5 4.5
2017-Jun-18 14:00N 44°25' E 008°55'0 0.3
2017-Jun-18 13:28N 44°25' E 008°55'0 0.0
2017-Jun-18 12:58N 44°25' E 008°55'0 0.0
2017-Jun-18 12:28N 44°25' E 008°55'0 0.0
2017-Jun-18 12:00N 44°25' E 008°55'0 0.0
2017-Jun-18 11:27N 44°25' E 008°55'0 0.0
2017-Jun-18 10:57N 44°25' E 008°55'0 0.0
2017-Jun-18 10:27N 44°25' E 008°55'0 0.0
2017-Jun-18 10:00N 44°25' E 008°55'0 0.0
2017-Jun-18 09:30N 44°25' E 008°55'0 0.0
2017-Jun-18 09:00N 44°25' E 008°55'0 0.0
2017-Jun-18 08:30N 44°25' E 008°55'0 0.0
2017-Jun-18 07:59N 44°25' E 008°55'0 0.0
2017-Jun-18 07:29N 44°25' E 008°55'0 0.0
2017-Jun-18 06:59N 44°25' E 008°55'0 0.0
2017-Jun-18 06:30N 44°25' E 008°55'0 0.0
2017-Jun-18 05:59N 44°25' E 008°55'0 0.0
2017-Jun-18 05:29N 44°25' E 008°55'0 0.0
2017-Jun-18 04:58N 44°25' E 008°55'0 0.0
2017-Jun-18 04:29N 44°25' E 008°55'0 0.0
2017-Jun-18 03:58N 44°25' E 008°55'0 0.0
2017-Jun-18 03:29N 44°25' E 008°55'0 0.0
2017-Jun-18 02:58N 44°25' E 008°55'0 0.0
2017-Jun-18 02:28N 44°25' E 008°55'0 0.0
2017-Jun-18 01:58N 44°25' E 008°55'0 0.0
2017-Jun-18 01:28N 44°25' E 008°55'0 0.0
2017-Jun-18 00:58N 44°25' E 008°55'0 0.0
2017-Jun-18 00:28N 44°25' E 008°55'0 0.0
2017-Jun-17 23:58N 44°25' E 008°55'0 0.0
2017-Jun-17 23:28N 44°25' E 008°55'0 0.0
2017-Jun-17 22:58N 44°25' E 008°55'0 0.0
2017-Jun-17 22:28N 44°25' E 008°55'0 0.0
2017-Jun-17 21:58N 44°25' E 008°55'0 0.0
2017-Jun-17 21:28N 44°25' E 008°55'0 0.0
2017-Jun-17 20:58N 44°25' E 008°55'0 0.0
2017-Jun-17 20:28N 44°25' E 008°55'0 0.0
2017-Jun-17 19:49N 44°25' E 008°55'0 0.0
2017-Jun-17 19:19N 44°25' E 008°55'0 0.0
2017-Jun-17 18:58N 44°25' E 008°55'0 0.0
2017-Jun-17 18:25N 44°25' E 008°55'0 0.0
2017-Jun-17 17:55N 44°25' E 008°55'0 0.0
2017-Jun-17 17:28N 44°25' E 008°55'0 0.0
2017-Jun-17 16:58N 44°25' E 008°55'0 0.0
2017-Jun-17 16:28N 44°25' E 008°55'0 0.0
2017-Jun-17 15:55N 44°25' E 008°55'0 0.0
2017-Jun-17 15:28N 44°25' E 008°55'0 0.0
2017-Jun-17 14:58N 44°25' E 008°55'0 0.0
2017-Jun-17 14:25N 44°25' E 008°55'0 0.0
2017-Jun-17 13:25N 44°25' E 008°55'0 0.0
2017-Jun-17 12:55N 44°25' E 008°55'0 0.0
2017-Jun-17 12:25N 44°25' E 008°55'0 0.0
2017-Jun-17 12:00N 44°25' E 008°55'0 0.0
2017-Jun-17 11:30N 44°25' E 008°55'0 0.0
2017-Jun-17 11:00N 44°25' E 008°55'0 0.0
2017-Jun-17 10:30N 44°25' E 008°55'0 0.0
2017-Jun-17 10:00N 44°25' E 008°55'0 0.0
2017-Jun-17 09:30N 44°25' E 008°55'0 0.0
2017-Jun-17 09:00N 44°25' E 008°55'0 0.0
2017-Jun-17 08:30N 44°25' E 008°55'0 0.0
2017-Jun-17 08:00N 44°25' E 008°55'0 0.0
2017-Jun-17 07:24N 44°25' E 008°55'0 0.0
2017-Jun-17 06:54N 44°25' E 008°55'0 0.0
2017-Jun-17 06:30N 44°25' E 008°55'0 0.0
2017-Jun-17 05:59N 44°25' E 008°55'0 0.0
2017-Jun-17 05:29N 44°25' E 008°55'0 0.0
2017-Jun-17 04:59N 44°25' E 008°55'0 0.0
2017-Jun-17 04:20N 44°25' E 008°55'0 0.0
2017-Jun-17 03:59N 44°25' E 008°55'0 0.0
2017-Jun-17 03:29N 44°25' E 008°55'0 0.0
2017-Jun-17 02:59N 44°25' E 008°55'0 0.0
2017-Jun-17 02:29N 44°25' E 008°55'0 0.0
2017-Jun-17 01:56N 44°25' E 008°55'0 0.0
2017-Jun-17 01:29N 44°25' E 008°55'0 0.0
2017-Jun-17 00:59N 44°25' E 008°55'0 0.0
2017-Jun-17 00:29N 44°25' E 008°55'0 0.0
2017-Jun-16 23:59N 44°25' E 008°55'0 0.0
2017-Jun-16 23:29N 44°25' E 008°55'0 0.0
2017-Jun-16 22:59N 44°25' E 008°55'0 0.0
2017-Jun-16 22:29N 44°25' E 008°55'0 0.0
2017-Jun-16 21:56N 44°25' E 008°55'0 0.0
2017-Jun-16 21:29N 44°25' E 008°55'0 0.0
2017-Jun-16 20:59N 44°25' E 008°55'0 0.0
2017-Jun-16 20:29N 44°25' E 008°55'0 0.0
2017-Jun-16 19:59N 44°25' E 008°55'0 0.0
2017-Jun-16 19:29N 44°25' E 008°55'0 0.0
2017-Jun-16 18:59N 44°25' E 008°55'0 0.0
2017-Jun-16 18:29N 44°25' E 008°55'  
Track history (hours):
 
Tides and Currents Weather Stations Pressure Air Temp Water Temp Dewpoint Dewpoint Depression Visibility Wind Speed Wind Dir Waves Ship Positions

9ha2459

Last reported at 2017-Jun-26 18:24 UTC. Time now 2017-Jun-26 18:47 UTC.
Position N 38°46' E 001°26'.

Length 50 m; draft 4.9 m.

Type: Pleasure craft. MMSI: 248663000.

Date/timePositionNaut miles runAvg speedWind from/ knotsBaromVisibWave heightAir tempDewpointWater temp
2017-Jun-26 18:24N 38°46' E 001°26'0 0.0
2017-Jun-26 17:12N 38°46' E 001°26'0 0.1
2017-Jun-26 16:57N 38°46' E 001°26'0 0.0
2017-Jun-26 16:27N 38°46' E 001°26'0 0.0
2017-Jun-26 15:51N 38°46' E 001°26'0 0.0
2017-Jun-26 15:30N 38°46' E 001°26'0 0.0
2017-Jun-26 14:57N 38°46' E 001°26'0 0.0
2017-Jun-26 13:26N 38°46' E 001°26'0 0.0
2017-Jun-26 11:30N 38°46' E 001°26'0 0.0
2017-Jun-26 07:36N 38°46' E 001°26'8 1.3
2017-Jun-26 01:37N 38°52' E 001°19'0 0.1
2017-Jun-26 01:25N 38°52' E 001°19'0 0.0
2017-Jun-25 21:13N 38°52' E 001°19'0 0.0
2017-Jun-25 20:49N 38°52' E 001°19'0 0.0
2017-Jun-25 20:25N 38°52' E 001°19'0 0.0
2017-Jun-25 07:06N 38°52' E 001°19'1 6.4
2017-Jun-25 07:00N 38°51' E 001°19'510.2
2017-Jun-25 06:30N 38°48' E 001°24'3 4.5
2017-Jun-25 05:57N 38°46' E 001°26'0 0.0
2017-Jun-25 05:30N 38°46' E 001°26'0 0.0
2017-Jun-25 05:00N 38°46' E 001°26'0 0.0
2017-Jun-25 03:21N 38°46' E 001°26'0 0.0
2017-Jun-25 02:51N 38°46' E 001°26'0 0.0
2017-Jun-25 02:30N 38°46' E 001°26'0 0.0
2017-Jun-25 02:00N 38°46' E 001°26'0 0.0
2017-Jun-25 01:30N 38°46' E 001°26'0 0.0
2017-Jun-25 01:00N 38°46' E 001°26'0 0.0
2017-Jun-25 00:30N 38°46' E 001°26'0 0.0
2017-Jun-25 00:00N 38°46' E 001°26'0 0.0
2017-Jun-24 23:24N 38°46' E 001°26'0 0.0
2017-Jun-24 22:57N 38°46' E 001°26'0 0.0
2017-Jun-24 22:21N 38°46' E 001°26'0 0.0
2017-Jun-24 22:00N 38°46' E 001°26'0 0.0
2017-Jun-24 21:24N 38°46' E 001°26'0 0.0
2017-Jun-24 20:57N 38°46' E 001°26'0 0.0
2017-Jun-24 20:15N 38°46' E 001°26'0 0.0
2017-Jun-24 19:57N 38°46' E 001°26'0 0.0
2017-Jun-24 19:27N 38°46' E 001°26'0 0.0
2017-Jun-24 19:00N 38°46' E 001°26'0 0.0
2017-Jun-24 18:27N 38°46' E 001°26'0 0.0
2017-Jun-24 18:00N 38°46' E 001°26'0 0.0
2017-Jun-24 17:27N 38°46' E 001°26'0 0.0
2017-Jun-24 16:57N 38°46' E 001°26'0 0.0
2017-Jun-24 16:30N 38°46' E 001°26'0 0.0
2017-Jun-24 16:00N 38°46' E 001°26'0 0.0
2017-Jun-24 15:30N 38°46' E 001°26'0 0.0
2017-Jun-24 15:00N 38°46' E 001°26'0 0.0
2017-Jun-24 14:00N 38°46' E 001°26'0 0.0
2017-Jun-24 13:30N 38°46' E 001°26'0 0.0
2017-Jun-24 13:01N 38°46' E 001°26'0 0.0
2017-Jun-24 12:30N 38°46' E 001°26'0 0.1
2017-Jun-24 12:00N 38°46' E 001°26'0 0.0
2017-Jun-24 11:30N 38°46' E 001°26'0 0.1
2017-Jun-24 10:59N 38°46' E 001°26'0 0.0
2017-Jun-24 10:30N 38°46' E 001°26'0 0.0
2017-Jun-24 10:00N 38°46' E 001°26'0 0.1
2017-Jun-24 09:30N 38°46' E 001°26'0 0.0
2017-Jun-24 09:00N 38°46' E 001°26'0 0.0
2017-Jun-24 08:30N 38°46' E 001°26'0 0.0
2017-Jun-24 08:00N 38°46' E 001°26'0 0.1
2017-Jun-24 07:30N 38°46' E 001°26'3 5.7
2017-Jun-24 07:00N 38°48' E 001°23'5 4.8
2017-Jun-24 05:54N 38°52' E 001°19'0 0.0
2017-Jun-24 01:06N 38°52' E 001°19'0 0.1
2017-Jun-24 01:00N 38°52' E 001°19'0 0.0
2017-Jun-24 00:24N 38°52' E 001°19'0 0.0
2017-Jun-23 23:48N 38°52' E 001°19'0 0.0
2017-Jun-23 23:30N 38°52' E 001°19'0 0.0
2017-Jun-23 22:48N 38°52' E 001°19'0 0.0
2017-Jun-23 22:24N 38°52' E 001°19'0 0.0
2017-Jun-23 21:00N 38°52' E 001°19'0 0.0
2017-Jun-23 20:30N 38°52' E 001°19'0 0.0
2017-Jun-23 19:48N 38°52' E 001°19'0 0.0
2017-Jun-23 19:30N 38°52' E 001°19'0 0.0
2017-Jun-23 19:00N 38°52' E 001°19'0 0.0
2017-Jun-23 18:12N 38°52' E 001°19'0 0.0
2017-Jun-23 17:48N 38°52' E 001°19'0 0.0
2017-Jun-23 17:30N 38°52' E 001°19'0 0.0
2017-Jun-23 13:00N 38°52' E 001°19'0 0.0
2017-Jun-23 10:30N 38°52' E 001°19'0 0.0
2017-Jun-23 10:00N 38°52' E 001°19'0 0.0
2017-Jun-23 09:30N 38°52' E 001°19'0 0.0
2017-Jun-23 09:00N 38°52' E 001°19'0 0.0
2017-Jun-23 00:00N 38°52' E 001°19'0 0.0
2017-Jun-22 23:24N 38°52' E 001°19'0 0.0
2017-Jun-22 23:00N 38°52' E 001°19'0 0.0
2017-Jun-22 21:24N 38°52' E 001°19'0 0.0
2017-Jun-22 21:00N 38°52' E 001°19'0 0.0
2017-Jun-22 20:30N 38°52' E 001°19'0 0.0
2017-Jun-22 19:42N 38°52' E 001°19'0 0.0
2017-Jun-22 19:30N 38°52' E 001°19'0 0.0
2017-Jun-22 18:48N 38°52' E 001°19'0 0.0
2017-Jun-22 18:30N 38°52' E 001°19'0 0.0
2017-Jun-22 17:30N 38°52' E 001°19'0 0.0
2017-Jun-22 16:48N 38°52' E 001°19'0 0.0
2017-Jun-22 16:24N 38°52' E 001°19'0 0.0
2017-Jun-22 16:00N 38°52' E 001°19'0 0.0
2017-Jun-22 15:24N 38°52' E 001°19'0 0.0
2017-Jun-22 14:54N 38°52' E 001°19'0 0.0
2017-Jun-22 14:30N 38°52' E 001°19'0 0.0
2017-Jun-22 13:29N 38°52' E 001°19'0 0.0
2017-Jun-22 12:59N 38°52' E 001°19'0 0.0
2017-Jun-22 12:29N 38°52' E 001°19'1 1.9
2017-Jun-22 11:55N 38°52' E 001°18'0 0.1
2017-Jun-22 10:27N 38°52' E 001°18'1 0.9
2017-Jun-22 09:11N 38°52' E 001°19'0 0.1
2017-Jun-22 08:59N 38°52' E 001°19'0 0.0
2017-Jun-22 08:29N 38°52' E 001°19'0 0.1
2017-Jun-22 07:41N 38°52' E 001°19'0 0.0
2017-Jun-22 06:41N 38°52' E 001°19'0 0.0
2017-Jun-22 06:29N 38°52' E 001°19'0 0.0
2017-Jun-22 05:59N 38°52' E 001°19'0 0.0
2017-Jun-22 05:29N 38°52' E 001°19'0 0.0
2017-Jun-22 04:59N 38°52' E 001°19'0 0.0
2017-Jun-22 04:29N 38°52' E 001°19'0 0.0
2017-Jun-22 03:59N 38°52' E 001°19'0 0.0
2017-Jun-22 03:17N 38°52' E 001°19'0 0.0
2017-Jun-22 02:59N 38°52' E 001°19'0 0.0
2017-Jun-22 02:29N 38°52' E 001°19'0 0.0
2017-Jun-22 00:53N 38°52' E 001°19'0 0.0
2017-Jun-21 20:44N 38°52' E 001°19'0 0.1
2017-Jun-21 20:29N 38°52' E 001°19'0 0.0
2017-Jun-21 15:58N 38°52' E 001°19'0 0.0
2017-Jun-21 15:16N 38°52' E 001°19'0 0.0
2017-Jun-21 05:51N 38°52' E 001°19'0 0.0
2017-Jun-21 05:27N 38°52' E 001°19'0 0.0
2017-Jun-21 04:57N 38°52' E 001°19'0 0.0
2017-Jun-21 04:30N 38°52' E 001°19'0 0.1
2017-Jun-21 03:59N 38°52' E 001°19'0 0.0
2017-Jun-21 03:28N 38°52' E 001°19'0 0.0
2017-Jun-21 03:00N 38°52' E 001°19'0 0.0
2017-Jun-21 02:21N 38°52' E 001°19'0 0.0
2017-Jun-21 01:48N 38°52' E 001°19'0 0.0
2017-Jun-21 01:15N 38°52' E 001°19'0 0.0
2017-Jun-21 00:51N 38°52' E 001°19'0 0.0
2017-Jun-21 00:27N 38°52' E 001°19'0 0.0
2017-Jun-21 00:00N 38°52' E 001°19'0 0.0
2017-Jun-20 23:30N 38°52' E 001°19'0 0.0
2017-Jun-20 23:00N 38°52' E 001°19'0 0.0
2017-Jun-20 22:30N 38°52' E 001°19'0 0.0
2017-Jun-20 22:00N 38°52' E 001°19'0 0.0
2017-Jun-20 21:20N 38°52' E 001°19'0 0.0
2017-Jun-20 20:57N 38°52' E 001°19'0 0.0
2017-Jun-20 20:31N 38°52' E 001°19'0 0.0
2017-Jun-20 20:00N 38°52' E 001°19'0 0.1
2017-Jun-20 19:30N 38°52' E 001°19'0 0.0
2017-Jun-20 19:00N 38°52' E 001°19'0 0.0
2017-Jun-20 18:30N 38°52' E 001°19'0 0.0
2017-Jun-20 18:00N 38°52' E 001°19'0 0.0
2017-Jun-20 17:30N 38°52' E 001°19'0 0.0
2017-Jun-20 16:59N 38°52' E 001°19'0 0.0
2017-Jun-20 16:30N 38°52' E 001°19'0 0.0
2017-Jun-20 16:00N 38°52' E 001°19'2 4.3
2017-Jun-20 15:30N 38°50' E 001°20'510.2
2017-Jun-20 15:00N 38°50' E 001°27'611.4
2017-Jun-20 14:30N 38°54' E 001°32'1010.0
2017-Jun-20 13:30N 39°02' E 001°38'3 5.7
2017-Jun-20 13:00N 39°03' E 001°42'510.6
2017-Jun-20 12:30N 39°07' E 001°46'510.4
2017-Jun-20 12:00N 39°11' E 001°50'510.5
2017-Jun-20 11:31N 39°15' E 001°54'510.5
2017-Jun-20 11:01N 39°19' E 001°58'510.8
2017-Jun-20 10:30N 39°24' E 002°02'510.4
2017-Jun-20 10:01N 39°28' E 002°06'510.3
2017-Jun-20 09:30N 39°32' E 002°10'510.0
2017-Jun-20 09:00N 39°36' E 002°15'510.3
2017-Jun-20 08:30N 39°39' E 002°19'611.2
2017-Jun-20 08:00N 39°43' E 002°24'510.8
2017-Jun-20 07:30N 39°47' E 002°29'511.0
2017-Jun-20 07:01N 39°51' E 002°34'611.1
2017-Jun-20 06:30N 39°55' E 002°39'611.1
2017-Jun-20 06:00N 39°59' E 002°45'511.0
2017-Jun-20 05:30N 40°02' E 002°50'611.1
2017-Jun-20 05:00N 40°06' E 002°55'510.9
2017-Jun-20 04:30N 40°10' E 003°01'610.8
2017-Jun-20 03:59N 40°13' E 003°06'510.6
2017-Jun-20 03:30N 40°17' E 003°11'710.4
2017-Jun-20 02:52N 40°21' E 003°18'410.1
2017-Jun-20 02:31N 40°24' E 003°21'2010.2
2017-Jun-20 00:35N 40°37' E 003°40'210.3
2017-Jun-20 00:25N 40°39' E 003°41'1810.3
2017-Jun-19 22:38N 40°51' E 003°59'1410.2
2017-Jun-19 21:14N 41°01' E 004°13'610.3
2017-Jun-19 20:38N 41°06' E 004°18'2010.2
2017-Jun-19 18:38N 41°20' E 004°37'36 9.0
2017-Jun-19 14:39N 41°45' E 005°12'1 0.5
2017-Jun-19 13:30N 41°45' E 005°13'8 9.7
2017-Jun-19 12:39N 41°51' E 005°20'19 9.7
2017-Jun-19 10:40N 42°05' E 005°39'1910.1
2017-Jun-19 08:46N 42°18' E 005°58'8 4.0
2017-Jun-19 06:40N 42°23' E 006°07'15 8.3
2017-Jun-19 04:50N 42°33' E 006°22'310.9
2017-Jun-19 04:30N 42°36' E 006°25'611.3
2017-Jun-19 04:00N 42°40' E 006°31'611.5
2017-Jun-19 03:30N 42°43' E 006°37'611.5
2017-Jun-19 03:00N 42°47' E 006°42'611.7
2017-Jun-19 02:30N 42°51' E 006°48'611.8
2017-Jun-19 01:59N 42°55' E 006°55'611.8
2017-Jun-19 01:30N 42°59' E 007°00'611.7
2017-Jun-19 01:00N 43°03' E 007°07'611.6
2017-Jun-19 00:30N 43°07' E 007°12'611.7
2017-Jun-19 00:00N 43°11' E 007°18'2511.6
2017-Jun-18 21:53N 43°28' E 007°42'411.8
2017-Jun-18 21:30N 43°32' E 007°46'611.8
2017-Jun-18 21:00N 43°36' E 007°52'611.8
2017-Jun-18 20:30N 43°40' E 007°58'611.9
2017-Jun-18 20:00N 43°44' E 008°04'611.8
2017-Jun-18 19:30N 43°49' E 008°09'611.5
2017-Jun-18 19:00N 43°53' E 008°15'611.2
2017-Jun-18 18:30N 43°56' E 008°21'510.8
2017-Jun-18 18:00N 44°00' E 008°26'510.7
2017-Jun-18 17:30N 44°04' E 008°31'510.6
2017-Jun-18 17:00N 44°07' E 008°37'510.0
2017-Jun-18 16:30N 44°10' E 008°42'510.0
2017-Jun-18 16:00N 44°13' E 008°48'510.1
2017-Jun-18 15:30N 44°16' E 008°53'5 9.8
2017-Jun-18 15:00N 44°20' E 008°58'5 4.5
2017-Jun-18 14:00N 44°25' E 008°55'0 0.3
2017-Jun-18 13:28N 44°25' E 008°55'0 0.0
2017-Jun-18 12:58N 44°25' E 008°55'0 0.0
2017-Jun-18 12:28N 44°25' E 008°55'0 0.0
2017-Jun-18 12:00N 44°25' E 008°55'0 0.0
2017-Jun-18 11:27N 44°25' E 008°55'0 0.0
2017-Jun-18 10:57N 44°25' E 008°55'0 0.0
2017-Jun-18 10:27N 44°25' E 008°55'0 0.0
2017-Jun-18 10:00N 44°25' E 008°55'0 0.0
2017-Jun-18 09:30N 44°25' E 008°55'0 0.0
2017-Jun-18 09:00N 44°25' E 008°55'0 0.0
2017-Jun-18 08:30N 44°25' E 008°55'0 0.0
2017-Jun-18 07:59N 44°25' E 008°55'0 0.0
2017-Jun-18 07:29N 44°25' E 008°55'0 0.0
2017-Jun-18 06:59N 44°25' E 008°55'0 0.0
2017-Jun-18 06:30N 44°25' E 008°55'0 0.0
2017-Jun-18 05:59N 44°25' E 008°55'0 0.0
2017-Jun-18 05:29N 44°25' E 008°55'0 0.0
2017-Jun-18 04:58N 44°25' E 008°55'0 0.0
2017-Jun-18 04:29N 44°25' E 008°55'0 0.0
2017-Jun-18 03:58N 44°25' E 008°55'0 0.0
2017-Jun-18 03:29N 44°25' E 008°55'0 0.0
2017-Jun-18 02:58N 44°25' E 008°55'0 0.0
2017-Jun-18 02:28N 44°25' E 008°55'0 0.0
2017-Jun-18 01:58N 44°25' E 008°55'0 0.0
2017-Jun-18 01:28N 44°25' E 008°55'0 0.0
2017-Jun-18 00:58N 44°25' E 008°55'0 0.0
2017-Jun-18 00:28N 44°25' E 008°55'0 0.0
2017-Jun-17 23:58N 44°25' E 008°55'0 0.0
2017-Jun-17 23:28N 44°25' E 008°55'0 0.0
2017-Jun-17 22:58N 44°25' E 008°55'0 0.0
2017-Jun-17 22:28N 44°25' E 008°55'0 0.0
2017-Jun-17 21:58N 44°25' E 008°55'0 0.0
2017-Jun-17 21:28N 44°25' E 008°55'0 0.0
2017-Jun-17 20:58N 44°25' E 008°55'0 0.0
2017-Jun-17 20:28N 44°25' E 008°55'0 0.0
2017-Jun-17 19:49N 44°25' E 008°55'0 0.0
2017-Jun-17 19:19N 44°25' E 008°55'0 0.0
2017-Jun-17 18:58N 44°25' E 008°55'0 0.0
2017-Jun-17 18:25N 44°25' E 008°55'0 0.0
2017-Jun-17 17:55N 44°25' E 008°55'0 0.0
2017-Jun-17 17:28N 44°25' E 008°55'0 0.0
2017-Jun-17 16:58N 44°25' E 008°55'0 0.0
2017-Jun-17 16:28N 44°25' E 008°55'0 0.0
2017-Jun-17 15:55N 44°25' E 008°55'0 0.0
2017-Jun-17 15:28N 44°25' E 008°55'0 0.0
2017-Jun-17 14:58N 44°25' E 008°55'0 0.0
2017-Jun-17 14:25N 44°25' E 008°55'0 0.0
2017-Jun-17 13:25N 44°25' E 008°55'0 0.0
2017-Jun-17 12:55N 44°25' E 008°55'0 0.0
2017-Jun-17 12:25N 44°25' E 008°55'0 0.0
2017-Jun-17 12:00N 44°25' E 008°55'0 0.0
2017-Jun-17 11:30N 44°25' E 008°55'0 0.0
2017-Jun-17 11:00N 44°25' E 008°55'0 0.0
2017-Jun-17 10:30N 44°25' E 008°55'0 0.0
2017-Jun-17 10:00N 44°25' E 008°55'0 0.0
2017-Jun-17 09:30N 44°25' E 008°55'0 0.0
2017-Jun-17 09:00N 44°25' E 008°55'0 0.0
2017-Jun-17 08:30N 44°25' E 008°55'0 0.0
2017-Jun-17 08:00N 44°25' E 008°55'0 0.0
2017-Jun-17 07:24N 44°25' E 008°55'0 0.0
2017-Jun-17 06:54N 44°25' E 008°55'0 0.0
2017-Jun-17 06:30N 44°25' E 008°55'0 0.0
2017-Jun-17 05:59N 44°25' E 008°55'0 0.0
2017-Jun-17 05:29N 44°25' E 008°55'0 0.0
2017-Jun-17 04:59N 44°25' E 008°55'0 0.0
2017-Jun-17 04:20N 44°25' E 008°55'0 0.0
2017-Jun-17 03:59N 44°25' E 008°55'0 0.0
2017-Jun-17 03:29N 44°25' E 008°55'0 0.0
2017-Jun-17 02:59N 44°25' E 008°55'0 0.0
2017-Jun-17 02:29N 44°25' E 008°55'0 0.0
2017-Jun-17 01:56N 44°25' E 008°55'0 0.0
2017-Jun-17 01:29N 44°25' E 008°55'0 0.0
2017-Jun-17 00:59N 44°25' E 008°55'0 0.0
2017-Jun-17 00:29N 44°25' E 008°55'0 0.0
2017-Jun-16 23:59N 44°25' E 008°55'0 0.0
2017-Jun-16 23:29N 44°25' E 008°55'0 0.0
2017-Jun-16 22:59N 44°25' E 008°55'0 0.0
2017-Jun-16 22:29N 44°25' E 008°55'0 0.0
2017-Jun-16 21:56N 44°25' E 008°55'0 0.0
2017-Jun-16 21:29N 44°25' E 008°55'0 0.0
2017-Jun-16 20:59N 44°25' E 008°55'0 0.0
2017-Jun-16 20:29N 44°25' E 008°55'0 0.0
2017-Jun-16 19:59N 44°25' E 008°55'0 0.0
2017-Jun-16 19:29N 44°25' E 008°55'0 0.0
2017-Jun-16 18:59N 44°25' E 008°55'0 0.0
2017-Jun-16 18:29N 44°25' E 008°55'  

Dump ship's entire track history